createdAt,value
2019-01-02T00:02:29.723Z,80.88
2019-01-02T00:05:00.371Z,79.85
2019-01-02T00:07:31.005Z,80.40
2019-01-02T00:10:01.774Z,80.88
2019-01-02T00:12:32.451Z,80.88
2019-01-02T00:15:03.003Z,81.26
2019-01-02T00:17:33.902Z,82.94
2019-01-02T00:20:05.803Z,88.45
2019-01-02T00:22:38.152Z,92.01
2019-01-02T00:25:09.336Z,93.54
2019-01-02T00:27:40.103Z,94.86
2019-01-02T00:30:11.109Z,95.57
2019-01-02T00:32:43.354Z,95.21
2019-01-02T00:35:15.208Z,91.23
2019-01-02T00:37:46.301Z,89.56
2019-01-02T00:40:17.281Z,89.78
2019-01-02T00:42:50.441Z,89.40
2019-01-02T00:45:22.365Z,88.03
2019-01-02T00:47:54.319Z,88.52
2019-01-02T00:50:25.365Z,86.63
2019-01-02T00:52:58.297Z,84.99
2019-01-02T00:55:29.128Z,83.02
2019-01-02T00:57:59.811Z,79.96
2019-01-02T01:00:31.514Z,79.96
2019-01-02T01:03:04.140Z,79.57
2019-01-02T01:05:37.216Z,78.85
2019-01-02T01:08:08.280Z,78.85
2019-01-02T01:10:39.473Z,79.73
2019-01-02T01:13:10.253Z,77.83
2019-01-02T01:15:43.570Z,77.83
2019-01-02T01:18:14.418Z,77.01
2019-01-02T01:20:45.225Z,77.40
2019-01-02T01:23:18.417Z,77.18
2019-01-02T01:25:49.217Z,76.01
2019-01-02T01:28:20.406Z,73.69
2019-01-02T01:30:51.354Z,72.06
2019-01-02T01:33:22.436Z,72.60
2019-01-02T01:35:55.436Z,72.22
2019-01-02T01:38:26.342Z,71.19
2019-01-02T01:40:57.473Z,71.19
2019-01-02T01:43:28.123Z,71.04
2019-01-02T01:45:59.628Z,72.48
2019-01-02T01:48:32.429Z,72.48
2019-01-02T01:51:05.982Z,72.92
2019-01-02T01:53:37.478Z,72.97
2019-01-02T01:56:09.788Z,73.89
2019-01-02T01:58:40.678Z,74.31
2019-01-02T02:01:12.320Z,74.31
2019-01-02T02:03:44.783Z,75.43
2019-01-02T02:06:18.042Z,75.85
2019-01-02T02:08:49.115Z,76.05
2019-01-02T02:11:19.483Z,76.54
2019-01-02T02:13:50.413Z,76.75
2019-01-02T02:16:21.186Z,76.91
2019-01-02T02:18:52.083Z,77.04
2019-01-02T02:21:22.491Z,76.57
2019-01-02T02:23:53.557Z,76.57
2019-01-02T02:26:24.523Z,75.52
2019-01-02T02:28:54.921Z,75.09
2019-01-02T02:31:25.474Z,75.09
2019-01-02T02:33:56.435Z,75.41
2019-01-02T02:36:27.213Z,74.71
2019-01-02T02:38:59.598Z,74.85
2019-01-02T02:41:31.649Z,74.44
2019-01-02T02:44:04.789Z,74.44
2019-01-02T02:46:35.663Z,73.29
2019-01-02T02:49:06.664Z,72.34
2019-01-02T02:51:39.814Z,72.70
2019-01-02T02:54:10.784Z,72.70
2019-01-02T02:56:43.754Z,72.88
2019-01-02T02:59:14.853Z,73.27
2019-01-02T03:01:47.773Z,73.12
2019-01-02T03:04:18.666Z,71.96
2019-01-02T03:06:49.311Z,71.89
2019-01-02T03:09:19.973Z,71.81
2019-01-02T03:11:50.310Z,70.57
2019-01-02T03:14:20.726Z,70.94
2019-01-02T03:16:51.463Z,71.06
2019-01-02T03:19:22.227Z,71.06
2019-01-02T03:21:54.513Z,69.28
2019-01-02T03:24:25.841Z,69.28
2019-01-02T03:26:56.728Z,68.58
2019-01-02T03:29:27.150Z,68.58
2019-01-02T03:31:57.802Z,66.66
2019-01-02T03:34:28.951Z,66.57
2019-01-02T03:36:59.833Z,65.83
2019-01-02T03:39:32.880Z,65.83
2019-01-02T03:42:03.812Z,65.50
2019-01-02T03:44:34.948Z,65.06
2019-01-02T03:47:07.878Z,64.54
2019-01-02T03:49:38.927Z,64.35
2019-01-02T03:52:10.039Z,64.54
2019-01-02T03:54:41.088Z,64.67
2019-01-02T03:57:14.016Z,64.27
2019-01-02T03:59:45.027Z,63.82
2019-01-02T04:02:15.977Z,63.24
2019-01-02T04:04:48.124Z,63.14
2019-01-02T04:07:20.274Z,63.24
2019-01-02T04:09:50.665Z,63.24
2019-01-02T04:12:21.103Z,62.67
2019-01-02T04:14:51.884Z,61.55
2019-01-02T04:17:22.512Z,61.55
2019-01-02T04:19:53.093Z,61.39
2019-01-02T04:22:23.487Z,61.63
2019-01-02T04:24:54.098Z,62.53
2019-01-02T04:27:27.208Z,62.03
2019-01-02T04:29:59.701Z,62.03
2019-01-02T04:32:32.218Z,62.18
2019-01-02T04:35:03.221Z,62.30
2019-01-02T04:37:34.257Z,60.70
2019-01-02T04:40:10.387Z,60.70
2019-01-02T04:42:43.051Z,60.82
2019-01-02T04:45:15.004Z,60.88
2019-01-02T04:47:45.674Z,60.30
2019-01-02T04:50:16.414Z,60.30
2019-01-02T04:52:47.283Z,60.50
2019-01-02T04:55:18.166Z,60.50
2019-01-02T04:57:48.934Z,60.43
2019-01-02T05:00:19.411Z,60.33
2019-01-02T05:02:50.895Z,61.49
2019-01-02T05:05:21.235Z,60.61
2019-01-02T05:07:51.981Z,60.18
2019-01-02T05:10:22.609Z,60.24
2019-01-02T05:12:53.058Z,60.24
2019-01-02T05:15:23.431Z,61.49
2019-01-02T05:17:54.155Z,61.49
2019-01-02T05:20:24.785Z,61.63
2019-01-02T05:22:55.333Z,61.63
2019-01-02T05:25:26.049Z,61.93
2019-01-02T05:27:56.408Z,61.78
2019-01-02T05:30:27.602Z,61.78
2019-01-02T05:32:58.105Z,61.83
2019-01-02T05:35:28.890Z,61.96
2019-01-02T05:37:59.317Z,61.66
2019-01-02T05:40:30.234Z,61.66
2019-01-02T05:43:00.930Z,61.17
2019-01-02T05:45:31.703Z,60.46
2019-01-02T05:48:02.351Z,60.46
2019-01-02T05:50:40.011Z,60.94
2019-01-02T05:53:11.766Z,60.97
2019-01-02T05:55:47.643Z,60.68
2019-01-02T05:58:20.632Z,60.67
2019-01-02T06:00:51.504Z,60.59
2019-01-02T06:03:22.490Z,60.64
2019-01-02T06:05:53.499Z,60.80
2019-01-02T06:08:23.872Z,61.39
2019-01-02T06:10:54.597Z,61.63
2019-01-02T06:13:27.718Z,61.75
2019-01-02T06:15:58.626Z,62.10
2019-01-02T06:18:29.482Z,62.66
2019-01-02T06:21:02.525Z,62.66
2019-01-02T06:23:33.843Z,64.66
2019-01-02T06:26:06.229Z,66.23
2019-01-02T06:28:37.611Z,66.29
2019-01-02T06:31:08.688Z,66.29
2019-01-02T06:33:41.625Z,67.30
2019-01-02T06:36:12.663Z,67.19
2019-01-02T06:38:43.659Z,67.42
2019-01-02T06:41:16.668Z,67.42
2019-01-02T06:43:48.004Z,67.49
2019-01-02T06:46:18.375Z,67.49
2019-01-02T06:48:49.009Z,67.72
2019-01-02T06:51:19.849Z,67.95
2019-01-02T06:53:50.573Z,68.81
2019-01-02T06:56:21.385Z,68.81
2019-01-02T06:58:52.606Z,68.91
2019-01-02T07:01:23.378Z,68.91
2019-01-02T07:03:53.896Z,69.39
2019-01-02T07:06:25.205Z,69.95
2019-01-02T07:08:55.560Z,70.55
2019-01-02T07:11:26.841Z,70.55
2019-01-02T07:13:58.845Z,70.94
2019-01-02T07:16:30.954Z,71.70
2019-01-02T07:19:04.182Z,72.80
2019-01-02T07:21:35.063Z,72.80
2019-01-02T07:24:06.166Z,73.85
2019-01-02T07:26:36.908Z,73.84
2019-01-02T07:29:08.892Z,74.22
2019-01-02T07:31:41.060Z,74.22
2019-01-02T07:34:19.555Z,74.79
2019-01-02T07:37:31.214Z,74.85
2019-01-02T07:40:37.956Z,77.18
2019-01-02T07:43:52.792Z,77.18
2019-01-02T07:46:57.798Z,78.01
2019-01-02T07:49:47.485Z,78.18
2019-01-02T07:52:53.635Z,78.63
2019-01-02T07:55:59.614Z,78.27
2019-01-02T07:59:08.191Z,78.57
2019-01-02T08:02:33.134Z,79.20
2019-01-02T08:05:29.989Z,80.00
2019-01-02T08:08:32.751Z,79.97
2019-01-02T08:11:31.910Z,79.53
2019-01-02T08:14:36.144Z,79.49
2019-01-02T08:17:39.470Z,78.46
2019-01-02T08:20:51.597Z,77.75
2019-01-02T08:23:53.232Z,78.51
2019-01-02T08:27:03.268Z,78.15
2019-01-02T08:30:24.100Z,78.66
2019-01-02T08:33:29.048Z,78.19
2019-01-02T08:36:40.864Z,78.11
2019-01-02T08:39:57.065Z,77.42
2019-01-02T08:43:16.349Z,76.30
2019-01-02T08:46:25.063Z,75.32
2019-01-02T08:49:23.942Z,73.94
2019-01-02T08:52:37.320Z,72.41
2019-01-02T08:56:01.738Z,72.41
2019-01-02T08:59:21.783Z,71.03
2019-01-02T09:02:09.390Z,70.00
2019-01-02T09:05:26.770Z,69.46
2019-01-02T09:08:54.306Z,68.86
2019-01-02T09:11:44.061Z,68.86
2019-01-02T09:14:45.015Z,69.60
2019-01-02T09:18:00.280Z,69.60
2019-01-02T09:21:24.003Z,67.89
2019-01-02T09:24:50.117Z,67.89
2019-01-02T09:27:52.432Z,68.32
2019-01-02T09:31:17.811Z,67.44
2019-01-02T09:34:29.658Z,67.90
2019-01-02T09:37:52.247Z,67.90
2019-01-02T09:41:04.104Z,66.53
2019-01-02T09:44:18.036Z,66.69
2019-01-02T09:47:37.988Z,66.69
2019-01-02T09:50:35.416Z,67.04
2019-01-02T09:53:40.578Z,65.94
2019-01-02T09:56:49.918Z,65.67
2019-01-02T09:59:58.419Z,65.86
2019-01-02T10:03:03.877Z,65.41
2019-01-02T10:06:30.228Z,65.41
2019-01-02T10:10:00.825Z,63.85
2019-01-02T10:13:09.711Z,63.41
2019-01-02T10:16:34.656Z,63.41
2019-01-02T10:19:33.404Z,64.05
2019-01-02T10:22:56.362Z,64.07
2019-01-02T10:26:16.671Z,64.02
2019-01-02T10:29:19.046Z,64.93
2019-01-02T10:32:27.774Z,64.63
2019-01-02T10:35:30.871Z,64.27
2019-01-02T10:38:46.917Z,63.04
2019-01-02T10:42:08.141Z,63.04
2019-01-02T10:45:15.007Z,61.12
2019-01-02T10:48:34.929Z,58.66
2019-01-02T10:52:00.718Z,58.66
2019-01-02T10:55:13.517Z,57.04
2019-01-02T10:58:08.474Z,55.50
2019-01-02T11:01:02.803Z,54.52
2019-01-02T11:04:24.634Z,54.90
2019-01-02T11:07:21.480Z,53.66
2019-01-02T11:10:47.439Z,55.30
2019-01-02T11:13:38.303Z,55.30
2019-01-02T11:16:43.862Z,60.08
2019-01-02T11:20:17.756Z,60.08
2019-01-02T11:23:38.539Z,61.28
2019-01-02T11:26:48.204Z,70.45
2019-01-02T11:29:57.686Z,70.45
2019-01-02T11:33:01.535Z,75.54
2019-01-02T11:36:10.268Z,78.92
2019-01-02T11:39:18.148Z,74.38
2019-01-02T11:42:16.102Z,72.21
2019-01-02T11:45:09.430Z,70.85
2019-01-02T11:48:02.519Z,70.90
2019-01-02T11:50:36.933Z,69.35
2019-01-02T11:53:17.401Z,70.53
2019-01-02T11:55:49.173Z,69.39
2019-01-02T11:58:20.304Z,71.17
2019-01-02T12:00:57.079Z,71.49
2019-01-02T12:03:29.487Z,70.47
2019-01-02T12:06:04.333Z,70.23
2019-01-02T12:08:37.076Z,69.96
2019-01-02T12:11:14.130Z,68.64
2019-01-02T12:13:51.659Z,68.05
2019-01-02T12:16:25.252Z,68.46
2019-01-02T12:19:00.001Z,66.74
2019-01-02T12:21:31.478Z,66.57
2019-01-02T12:24:09.791Z,66.13
2019-01-02T12:26:46.187Z,63.47
2019-01-02T12:29:24.346Z,63.28
2019-01-02T12:31:58.270Z,63.08
2019-01-02T12:34:35.101Z,61.11
2019-01-02T12:37:15.811Z,60.24
2019-01-02T12:39:50.113Z,59.63
2019-01-02T12:42:28.138Z,59.83
2019-01-02T12:45:06.777Z,59.78
2019-01-02T12:47:45.588Z,59.78
2019-01-02T12:50:36.863Z,60.70
2019-01-02T12:53:17.257Z,61.36
2019-01-02T12:55:53.076Z,61.51
2019-01-02T12:58:27.322Z,60.98
2019-01-02T13:01:15.564Z,61.59
2019-01-02T13:04:14.936Z,61.59
2019-01-02T13:07:28.818Z,61.39
2019-01-02T13:10:30.452Z,61.15
2019-01-02T13:14:13.892Z,60.61
2019-01-02T13:17:22.068Z,60.50
2019-01-02T13:20:34.814Z,60.81
2019-01-02T13:23:31.548Z,60.83
2019-01-02T13:26:54.787Z,60.22
2019-01-02T13:29:54.894Z,58.84
2019-01-02T13:33:04.893Z,58.84
2019-01-02T13:36:34.531Z,59.36
2019-01-02T13:39:37.803Z,59.75
2019-01-02T13:42:50.909Z,59.75
2019-01-02T13:45:51.383Z,59.68
2019-01-02T13:48:50.975Z,60.40
2019-01-02T13:51:31.020Z,60.48
2019-01-02T13:54:03.832Z,60.73
2019-01-02T13:56:37.884Z,60.73
2019-01-02T13:59:09.841Z,60.93
2019-01-02T14:01:43.466Z,61.04
2019-01-02T14:04:15.948Z,62.33
2019-01-02T14:06:50.047Z,62.33
2019-01-02T14:09:22.640Z,63.71
2019-01-02T14:11:57.423Z,65.15
2019-01-02T14:14:29.637Z,65.55
2019-01-02T14:17:02.771Z,65.34
2019-01-02T14:19:33.723Z,65.84
2019-01-02T14:22:04.234Z,65.76
2019-01-02T14:24:34.689Z,65.98
2019-01-02T14:27:05.123Z,65.14
2019-01-02T14:29:44.989Z,65.21
2019-01-02T14:32:15.885Z,66.26
2019-01-02T14:34:48.844Z,67.28
2019-01-02T14:37:21.995Z,67.28
2019-01-02T14:39:55.945Z,67.86
2019-01-02T14:42:26.561Z,68.56
2019-01-02T14:45:00.209Z,68.96
2019-01-02T14:47:31.825Z,70.04
2019-01-02T14:50:02.765Z,74.16
2019-01-02T14:52:35.897Z,79.29
2019-01-02T14:55:09.294Z,78.01
2019-01-02T14:57:40.947Z,77.47
2019-01-02T15:00:14.634Z,75.82
2019-01-02T15:02:46.930Z,74.80
2019-01-02T15:05:24.056Z,72.92
2019-01-02T15:07:56.958Z,71.32
2019-01-02T15:10:29.875Z,72.12
2019-01-02T15:13:03.765Z,71.00
2019-01-02T15:15:34.154Z,71.83
2019-01-02T15:18:04.562Z,71.69
2019-01-02T15:20:36.982Z,71.80
2019-01-02T15:23:08.075Z,69.17
2019-01-02T15:25:46.152Z,67.78
2019-01-02T15:28:23.243Z,67.22
2019-01-02T15:31:00.874Z,66.11
2019-01-02T15:33:33.038Z,66.01
2019-01-02T15:36:06.468Z,66.64
2019-01-02T15:38:43.066Z,66.07
2019-01-02T15:41:14.646Z,66.35
2019-01-02T15:43:46.079Z,66.18
2019-01-02T15:46:17.149Z,66.23
2019-01-02T15:48:48.156Z,66.70
2019-01-02T15:51:23.390Z,66.34
2019-01-02T15:54:04.970Z,66.98
2019-01-02T15:56:39.485Z,66.41
2019-01-02T15:59:12.134Z,66.33
2019-01-02T16:01:45.629Z,66.53
2019-01-02T16:04:18.667Z,66.93
2019-01-02T16:06:50.291Z,66.76
2019-01-02T16:09:23.488Z,67.21
2019-01-02T16:11:55.300Z,67.40
2019-01-02T16:14:34.983Z,67.22
2019-01-02T16:17:07.351Z,67.56
2019-01-02T16:19:40.165Z,67.14
2019-01-02T16:22:13.847Z,67.29
2019-01-02T16:24:47.573Z,66.76
2019-01-02T16:27:22.767Z,66.93
2019-01-02T16:29:54.975Z,66.93
2019-01-02T16:32:27.270Z,66.71
2019-01-02T16:34:58.197Z,66.54
2019-01-02T16:37:32.381Z,66.57
2019-01-02T16:40:12.215Z,66.00
2019-01-02T16:43:08.887Z,66.42
2019-01-02T16:45:41.476Z,66.48
2019-01-02T16:48:18.250Z,66.77
2019-01-02T16:50:49.477Z,66.90
2019-01-02T16:53:22.414Z,67.56
2019-01-02T16:55:53.623Z,67.72
2019-01-02T16:58:24.106Z,68.21
2019-01-02T17:00:54.586Z,68.37
2019-01-02T17:03:27.401Z,68.81
2019-01-02T17:05:59.379Z,67.84
2019-01-02T17:08:30.519Z,68.21
2019-01-02T17:11:03.457Z,68.05
2019-01-02T17:13:34.327Z,67.48
2019-01-02T17:16:05.137Z,67.77
2019-01-02T17:18:35.904Z,67.43
2019-01-02T17:21:06.558Z,68.02
2019-01-02T17:23:37.620Z,67.94
2019-01-02T17:26:08.418Z,68.17
2019-01-02T17:28:38.937Z,68.23
2019-01-02T17:31:10.939Z,68.47
2019-01-02T17:33:42.835Z,68.30
2019-01-02T17:36:13.510Z,68.45
2019-01-02T17:38:46.538Z,68.66
2019-01-02T17:41:18.702Z,68.74
2019-01-02T17:43:50.607Z,68.16
2019-01-02T17:46:23.814Z,67.19
2019-01-02T17:48:54.640Z,67.46
2019-01-02T17:51:26.025Z,67.46
2019-01-02T17:53:56.638Z,66.68
2019-01-02T17:56:27.546Z,66.35
2019-01-02T17:59:02.841Z,66.54
2019-01-02T18:01:34.794Z,66.05
2019-01-02T18:04:05.258Z,66.41
2019-01-02T18:06:35.623Z,65.95
2019-01-02T18:09:08.410Z,66.85
2019-01-02T18:11:39.750Z,66.03
2019-01-02T18:14:12.476Z,65.86
2019-01-02T18:16:44.728Z,65.57
2019-01-02T18:19:16.098Z,65.64
2019-01-02T18:21:46.788Z,65.04
2019-01-02T18:24:19.902Z,64.51
2019-01-02T18:26:50.866Z,64.63
2019-01-02T18:29:23.905Z,64.76
2019-01-02T18:31:55.638Z,64.72
2019-01-02T18:34:26.175Z,64.46
2019-01-02T18:36:56.806Z,64.58
2019-01-02T18:39:27.312Z,64.22
2019-01-02T18:41:57.812Z,63.90
2019-01-02T18:44:28.478Z,63.91
2019-01-02T18:46:58.873Z,64.37
2019-01-02T18:49:29.637Z,64.47
2019-01-02T18:52:00.277Z,64.40
2019-01-02T18:54:30.866Z,64.04
2019-01-02T18:57:01.569Z,64.21
2019-01-02T18:59:32.239Z,63.97
2019-01-02T19:02:02.893Z,64.12
2019-01-02T19:04:33.675Z,64.08
2019-01-02T19:07:05.713Z,64.63
2019-01-02T19:09:37.956Z,65.08
2019-01-02T19:12:10.389Z,65.21
2019-01-02T19:14:42.185Z,65.89
2019-01-02T19:17:13.081Z,66.36
2019-01-02T19:19:43.983Z,67.13
2019-01-02T19:22:16.980Z,67.25
2019-01-02T19:24:47.980Z,66.94
2019-01-02T19:27:19.011Z,66.56
2019-01-02T19:29:50.099Z,66.74
2019-01-02T19:32:21.144Z,66.41
2019-01-02T19:34:52.166Z,65.89
2019-01-02T19:37:24.065Z,65.02
2019-01-02T19:39:56.095Z,65.59
2019-01-02T19:42:27.292Z,65.92
2019-01-02T19:45:00.225Z,64.15
2019-01-02T19:47:30.814Z,64.81
2019-01-02T19:50:01.561Z,62.93
2019-01-02T19:52:32.066Z,61.92
2019-01-02T19:55:02.805Z,60.21
2019-01-02T19:57:33.214Z,60.54
2019-01-02T20:00:05.834Z,61.30
2019-01-02T20:02:37.338Z,62.73
2019-01-02T20:05:08.445Z,63.81
2019-01-02T20:07:39.291Z,64.67
2019-01-02T20:10:11.147Z,65.50
2019-01-02T20:12:43.451Z,66.06
2019-01-02T20:15:14.514Z,66.75
2019-01-02T20:17:47.413Z,66.60
2019-01-02T20:20:18.405Z,66.49
2019-01-02T20:22:49.490Z,66.37
2019-01-02T20:25:22.500Z,65.57
2019-01-02T20:27:53.294Z,64.63
2019-01-02T20:30:24.149Z,63.40
2019-01-02T20:32:55.427Z,63.29
2019-01-02T20:35:27.457Z,62.95
2019-01-02T20:37:59.518Z,62.76
2019-01-02T20:40:30.535Z,61.55
2019-01-02T20:43:01.367Z,61.80
2019-01-02T20:45:32.026Z,61.07
2019-01-02T20:48:02.534Z,62.15
2019-01-02T20:50:33.145Z,62.75
2019-01-02T20:53:03.548Z,61.50
2019-01-02T20:55:34.251Z,61.64
2019-01-02T20:58:04.868Z,60.36
2019-01-02T21:00:35.871Z,59.98
2019-01-02T21:03:06.307Z,60.31
2019-01-02T21:05:38.452Z,59.93
2019-01-02T21:08:10.552Z,60.25
2019-01-02T21:10:41.625Z,60.90
2019-01-02T21:13:14.470Z,61.49
2019-01-02T21:15:45.653Z,61.95
2019-01-02T21:18:18.470Z,62.36
2019-01-02T21:20:49.618Z,62.15
2019-01-02T21:23:20.598Z,62.64
2019-01-02T21:25:53.694Z,62.78
2019-01-02T21:28:24.122Z,63.24
2019-01-02T21:30:55.641Z,63.58
2019-01-02T21:33:27.720Z,63.45
2019-01-02T21:35:59.667Z,63.67
2019-01-02T21:38:30.750Z,63.63
2019-01-02T21:41:01.694Z,63.75
2019-01-02T21:43:32.766Z,63.11
2019-01-02T21:46:03.826Z,63.07
2019-01-02T21:48:34.296Z,63.08
2019-01-02T21:51:04.826Z,62.80
2019-01-02T21:53:35.569Z,62.94
2019-01-02T21:56:06.083Z,62.84
2019-01-02T21:58:36.627Z,62.89
2019-01-02T22:01:07.373Z,62.65
2019-01-02T22:03:38.332Z,62.22
2019-01-02T22:06:08.976Z,61.63
2019-01-02T22:08:41.057Z,61.90
2019-01-02T22:11:12.808Z,61.94
2019-01-02T22:13:43.747Z,61.73
2019-01-02T22:16:16.890Z,61.08
2019-01-02T22:18:49.802Z,61.44
2019-01-02T22:21:24.939Z,61.40
2019-01-02T22:23:57.981Z,61.27
2019-01-02T22:26:29.019Z,61.08
2019-01-02T22:28:59.775Z,61.08
2019-01-02T22:31:30.595Z,61.26
2019-01-02T22:34:01.548Z,61.01
2019-01-02T22:36:32.210Z,60.97
2019-01-02T22:39:04.323Z,60.75
2019-01-02T22:41:36.973Z,60.69
2019-01-02T22:44:07.972Z,61.15
2019-01-02T22:46:41.053Z,61.09
2019-01-02T22:49:11.925Z,61.46
2019-01-02T22:51:43.043Z,61.42
2019-01-02T22:54:17.129Z,61.87
2019-01-02T22:56:50.069Z,61.89
2019-01-02T22:59:21.147Z,61.79
2019-01-02T23:01:59.086Z,62.12
2019-01-02T23:04:50.252Z,62.62
2019-01-02T23:07:43.828Z,62.63
2019-01-02T23:10:36.379Z,64.07
2019-01-02T23:13:36.914Z,65.25
2019-01-02T23:16:28.069Z,67.55
2019-01-02T23:19:19.988Z,71.29
2019-01-02T23:22:11.994Z,75.72
2019-01-02T23:25:01.530Z,80.44
2019-01-02T23:28:09.925Z,85.92
2019-01-02T23:31:04.957Z,90.24
2019-01-02T23:34:05.807Z,93.72
2019-01-02T23:36:53.452Z,97.03
2019-01-02T23:39:43.219Z,99.20
2019-01-02T23:42:41.635Z,100.00
2019-01-02T23:45:44.072Z,99.70
2019-01-02T23:48:22.895Z,98.78
2019-01-02T23:51:12.729Z,97.32
2019-01-02T23:54:02.409Z,95.00
2019-01-02T23:56:53.152Z,92.26
2019-01-02T23:59:41.570Z,87.94
